Time;durP1;ratioP1;P1;durP2;ratioP2;P2;SDS_P1;SDS_P2;PMS_P1;PMS_P2;Temp;Humidity;BMP_temperature;BMP_pressure;BME280_temperature;BME280_humidity;BME280_pressure;Samples;Min_cycle;Max_cycle;Signal;HPM_P1;HPM_P2
2022/01/10 00:00:54;;;;;;;136.20;54.37;;;;;;;-5.40;78.04;98270.13;4113692;85;21115;-83
2022/01/10 00:06:56;;;;;;;148.38;55.35;;;;;;;-5.44;77.73;98278.47;4095776;86;21860;-83
2022/01/10 00:12:59;;;;;;;133.30;52.07;;;;;;;-5.70;77.87;98289.23;4066645;86;21052;-82
2022/01/10 00:19:00;;;;;;;129.43;51.90;;;;;;;-5.53;78.81;98292.97;4098253;85;21000;-82
2022/01/10 00:25:04;;;;;;;126.07;53.43;;;;;;;-5.57;78.56;98303.98;4112598;85;21080;-82
2022/01/10 00:31:06;;;;;;;129.60;51.20;;;;;;;-5.57;78.37;98315.17;4147017;84;21078;-83
2022/01/10 00:37:07;;;;;;;139.03;54.20;;;;;;;-5.44;78.96;98320.61;4163149;84;21083;-82
2022/01/10 00:43:17;;;;;;;195.50;69.10;;;;;;;-5.34;79.03;98322.34;4184303;83;21102;-82
2022/01/10 00:49:13;;;;;;;171.17;61.30;;;;;;;-5.37;78.70;98328.26;4169715;84;21023;-82
2022/01/10 00:55:15;;;;;;;140.33;55.77;;;;;;;-5.49;78.71;98337.20;4160587;84;21115;-83
2022/01/10 01:01:18;;;;;;;184.80;68.63;;;;;;;-5.55;79.17;98346.36;4154168;83;21523;-83
2022/01/10 01:07:19;;;;;;;141.57;56.30;;;;;;;-5.42;79.27;98352.33;4168434;83;21091;-83
2022/01/10 01:13:37;;;;;;;147.53;56.50;;;;;;;-5.35;79.71;98356.22;4165521;83;21025;-82
2022/01/10 01:25:53;;;;;;;189.67;68.53;;;;;;;-5.33;79.84;98357.27;4155234;83;21036;-83
2022/01/10 01:31:57;;;;;;;159.80;59.73;;;;;;;-5.27;80.06;98354.78;4163668;84;21075;-84
2022/01/10 01:37:59;;;;;;;136.73;58.67;;;;;;;-5.22;80.15;98364.05;4153823;84;21317;-83
2022/01/10 01:44:02;;;;;;;147.73;55.67;;;;;;;-5.18;80.50;98367.19;4187637;83;21078;-83
2022/01/10 01:50:07;;;;;;;157.80;61.07;;;;;;;-5.05;80.54;98377.16;4170561;83;20993;-82
2022/01/10 01:56:12;;;;;;;148.47;57.07;;;;;;;-5.08;80.38;98378.27;4175262;83;21054;-83
2022/01/10 02:02:13;;;;;;;143.53;54.50;;;;;;;-5.11;80.47;98389.52;4146195;84;21389;-82
2022/01/10 02:08:15;;;;;;;161.43;58.83;;;;;;;-5.15;80.50;98385.82;4150199;83;21178;-83
2022/01/10 02:14:17;;;;;;;139.03;56.37;;;;;;;-5.18;80.64;98395.20;4168062;84;21054;-84
2022/01/10 02:20:18;;;;;;;141.77;55.23;;;;;;;-5.16;80.91;98396.25;4148068;84;21393;-82
2022/01/10 02:26:20;;;;;;;143.37;56.60;;;;;;;-5.06;81.04;98403.57;4158510;84;21101;-83
2022/01/10 02:32:22;;;;;;;154.43;57.20;;;;;;;-5.05;80.95;98407.84;4123581;83;21097;-82
2022/01/10 02:38:23;;;;;;;144.07;55.37;;;;;;;-4.94;81.27;98413.30;4091650;86;21089;-83
2022/01/10 02:44:25;;;;;;;145.00;57.20;;;;;;;-4.97;80.78;98424.55;4108723;85;21058;-83
2022/01/10 02:50:27;;;;;;;136.67;55.97;;;;;;;-5.05;80.78;98437.73;4115034;85;21119;-82
2022/01/10 02:56:28;;;;;;;148.53;58.53;;;;;;;-5.08;81.04;98439.64;4112596;85;21873;-82
2022/01/10 03:02:33;;;;;;;155.37;61.83;;;;;;;-5.16;80.95;98442.42;4107173;85;21569;-82
2022/01/10 03:08:34;;;;;;;138.10;53.37;;;;;;;-5.22;80.93;98447.57;4091594;85;21926;-83
2022/01/10 03:14:37;;;;;;;142.27;53.83;;;;;;;-5.34;80.77;98454.40;4101548;85;21038;-82
2022/01/10 03:20:40;;;;;;;149.73;58.70;;;;;;;-5.45;81.02;98463.03;4120112;86;21057;-82
2022/01/10 03:26:41;;;;;;;168.17;64.67;;;;;;;-5.57;80.89;98467.17;4111398;85;21559;-82
2022/01/10 03:32:45;;;;;;;166.30;64.37;;;;;;;-5.69;81.00;98473.45;4169491;83;21056;-82
2022/01/10 03:38:49;;;;;;;141.40;54.77;;;;;;;-5.83;80.87;98477.36;4165083;85;21054;-82
2022/01/10 03:44:51;;;;;;;165.63;61.33;;;;;;;-5.92;81.42;98474.25;4173268;83;21874;-81
2022/01/10 03:50:52;;;;;;;135.60;54.20;;;;;;;-5.78;81.76;98487.14;4183467;84;21011;-81
2022/01/10 03:56:53;;;;;;;119.37;50.40;;;;;;;-5.74;81.27;98488.16;4169564;84;21705;-81
2022/01/10 04:03:01;;;;;;;141.67;53.63;;;;;;;-5.92;80.79;98509.67;4174965;85;21599;-82
2022/01/10 04:09:01;;;;;;;131.15;53.40;;;;;;;-5.93;81.38;98510.75;4153483;85;41068;-81
2022/01/10 04:15:04;;;;;;;128.30;52.70;;;;;;;-5.87;81.32;98514.96;4163443;85;21058;-83
2022/01/10 04:21:05;;;;;;;136.30;50.27;;;;;;;-6.04;80.79;98531.91;4159781;85;21016;-82
2022/01/10 04:27:07;;;;;;;147.20;52.60;;;;;;;-6.45;80.68;98546.57;4166176;85;21170;-81
2022/01/10 04:33:16;;;;;;;142.83;54.60;;;;;;;-6.54;81.56;98542.38;4120575;85;21981;-81
2022/01/10 04:39:13;;;;;;;147.57;56.93;;;;;;;-6.40;81.64;98551.88;4109087;84;21047;-82
2022/01/10 04:45:16;;;;;;;146.43;55.50;;;;;;;-6.36;81.65;98566.77;4121581;84;21169;-82
2022/01/10 04:51:17;;;;;;;150.10;56.67;;;;;;;-6.39;81.29;98583.30;4121799;84;21102;-82
2022/01/10 04:57:20;;;;;;;168.70;58.30;;;;;;;-6.42;81.51;98579.34;4097680;84;21022;-82
2022/01/10 05:03:22;;;;;;;151.10;59.20;;;;;;;-6.54;81.27;98592.97;4114816;85;21059;-82
2022/01/10 05:09:25;;;;;;;157.07;57.80;;;;;;;-6.64;81.62;98602.88;4123629;84;21598;-81
2022/01/10 05:15:28;;;;;;;140.33;57.53;;;;;;;-6.65;82.03;98618.57;4112898;85;21094;-82
2022/01/10 05:21:30;;;;;;;151.57;61.77;;;;;;;-6.59;82.34;98624.94;4115038;84;21669;-82
2022/01/10 05:27:31;;;;;;;147.00;57.37;;;;;;;-6.51;82.69;98632.89;4132067;85;21482;-81
2022/01/10 05:33:35;;;;;;;145.33;59.97;;;;;;;-6.48;82.68;98637.66;4155567;83;21066;-81
2022/01/10 05:39:36;;;;;;;179.43;69.17;;;;;;;-6.47;82.72;98649.38;4157134;85;21090;-82
2022/01/10 05:45:37;;;;;;;162.93;66.77;;;;;;;-6.47;82.94;98657.11;4168204;85;21666;-81
2022/01/10 05:51:39;;;;;;;156.30;59.03;;;;;;;-6.37;83.28;98683.71;4160232;85;21362;-82
2022/01/10 05:57:59;;;;;;;151.83;59.20;;;;;;;-6.36;84.51;98710.59;4149650;85;21057;-81
2022/01/10 06:04:00;;;;;;;140.10;55.37;;;;;;;-6.39;83.35;98720.47;4164523;85;21511;-82
2022/01/10 06:10:07;;;;;;;143.90;56.73;;;;;;;-6.57;83.24;98723.18;4138502;85;21022;-82
2022/01/10 06:16:09;;;;;;;147.87;59.03;;;;;;;-6.65;83.10;98741.84;4165937;85;21471;-81
2022/01/10 06:22:13;;;;;;;157.27;60.43;;;;;;;-6.59;83.65;98759.39;4145597;85;21102;-81
2022/01/10 06:28:19;;;;;;;143.33;56.07;;;;;;;-6.67;83.02;98772.47;4169234;83;34607;-81
2022/01/10 06:34:22;;;;;;;149.97;55.20;;;;;;;-6.62;83.75;98789.23;4184629;83;21033;-82
2022/01/10 06:40:25;;;;;;;154.23;56.07;;;;;;;-6.65;83.17;98799.61;4179463;83;20991;-82
2022/01/10 06:46:27;;;;;;;134.73;55.60;;;;;;;-6.67;83.61;98814.52;4186672;83;21113;-82
2022/01/10 06:52:29;;;;;;;145.23;58.47;;;;;;;-6.63;84.16;98824.91;4184894;83;21061;-82
2022/01/10 06:58:32;;;;;;;144.33;57.97;;;;;;;-6.56;84.19;98844.58;4186177;83;21104;-82
2022/01/10 07:04:34;;;;;;;145.40;53.93;;;;;;;-6.52;84.40;98861.12;4185242;83;21061;-82
2022/01/10 07:10:37;;;;;;;144.73;54.30;;;;;;;-6.42;84.53;98870.16;4182732;83;20998;-83
2022/01/10 07:16:40;;;;;;;136.20;57.47;;;;;;;-6.35;84.39;98877.32;4186501;83;21124;-82
2022/01/10 07:22:41;;;;;;;128.10;54.80;;;;;;;-6.28;84.72;98881.86;4178828;83;21029;-82
2022/01/10 07:28:43;;;;;;;125.60;54.93;;;;;;;-6.19;84.96;98911.69;4188232;83;21584;-83
2022/01/10 07:34:48;;;;;;;120.77;50.40;;;;;;;-6.05;85.83;98913.25;4184237;83;21023;-83
2022/01/10 07:40:52;;;;;;;141.20;57.60;;;;;;;-5.95;85.76;98922.57;4164311;83;21142;-82
2022/01/10 07:46:55;;;;;;;142.33;58.33;;;;;;;-5.86;86.31;98923.09;4142993;81;26604;-82
2022/01/10 07:53:02;;;;;;;144.87;59.63;;;;;;;-5.77;85.95;98936.61;4016689;86;21108;-83
2022/01/10 07:59:04;;;;;;;149.90;60.67;;;;;;;-5.76;86.18;98949.67;4012472;86;21356;-83
2022/01/10 08:05:07;;;;;;;152.63;60.37;;;;;;;-5.73;86.25;98964.34;4012362;87;21035;-83
2022/01/10 08:11:09;;;;;;;159.40;62.40;;;;;;;-5.71;87.16;98987.52;3959253;83;24026;-83
2022/01/10 08:17:10;;;;;;;172.73;63.43;;;;;;;-5.74;87.35;98995.54;3943944;88;21086;-83
2022/01/10 08:23:13;;;;;;;165.93;63.97;;;;;;;-5.67;87.48;99013.93;3863472;90;21066;-83
2022/01/10 08:29:14;;;;;;;154.93;61.13;;;;;;;-5.57;88.45;99024.03;3849863;90;21091;-83
2022/01/10 08:35:18;;;;;;;153.00;62.70;;;;;;;-5.50;87.92;99030.43;3854733;91;21088;-83
2022/01/10 08:41:19;;;;;;;144.73;56.27;;;;;;;-5.37;88.26;99048.55;3850223;91;21098;-84
2022/01/10 08:47:21;;;;;;;140.27;53.77;;;;;;;-5.31;88.14;99056.25;3844851;91;21111;-83
2022/01/10 08:53:22;;;;;;;150.73;55.77;;;;;;;-5.16;88.02;99059.42;3852355;91;21044;-84
2022/01/10 08:59:24;;;;;;;139.00;52.47;;;;;;;-5.05;88.01;99068.47;3883100;88;41913;-83
2022/01/10 09:05:25;;;;;;;136.07;52.03;;;;;;;-4.87;88.58;99072.42;3961518;89;21055;-84
2022/01/10 09:11:26;;;;;;;136.70;53.77;;;;;;;-4.77;88.27;99080.38;3987447;88;21043;-84
2022/01/10 09:17:28;;;;;;;135.00;50.37;;;;;;;-4.63;88.21;99095.27;3970714;88;21495;-84
2022/01/10 09:23:30;;;;;;;124.70;50.13;;;;;;;-4.48;88.51;99091.20;3977965;88;21102;-83
2022/01/10 09:29:31;;;;;;;115.93;45.57;;;;;;;-4.23;88.56;99087.05;3964891;89;21106;-84
2022/01/10 09:35:33;;;;;;;126.47;48.30;;;;;;;-4.18;88.74;99101.17;3963575;87;21068;-85
2022/01/10 09:41:35;;;;;;;129.13;49.90;;;;;;;-4.13;88.52;99107.83;3947492;89;21616;-83
2022/01/10 09:47:37;;;;;;;128.97;49.63;;;;;;;-4.07;88.24;99105.38;4001464;84;2318105;-84
2022/01/10 09:53:39;;;;;;;126.70;50.37;;;;;;;-3.96;88.29;99108.81;4154336;84;21035;-84
2022/01/10 09:59:41;;;;;;;104.30;44.33;;;;;;;-3.80;88.33;99111.09;4152594;84;21048;-85
2022/01/10 10:05:43;;;;;;;113.33;45.43;;;;;;;-3.59;88.31;99119.76;4169818;84;21471;-84
2022/01/10 10:11:52;;;;;;;102.07;41.30;;;;;;;-3.32;88.56;99115.49;4147778;84;21040;-85
2022/01/10 10:17:55;;;;;;;99.67;38.97;;;;;;;-3.01;88.72;99122.70;4168614;84;21089;-85
2022/01/10 10:24:05;;;;;;;89.17;36.10;;;;;;;-2.73;88.71;99122.39;4136243;84;21825;-86
2022/01/10 10:30:19;;;;;;;83.83;33.87;;;;;;;-2.58;88.93;99129.71;4164327;84;21056;-86
2022/01/10 10:36:21;;;;;;;86.67;32.43;;;;;;;-2.45;89.04;99136.27;4170261;83;21932;-87
2022/01/10 10:42:29;;;;;;;82.67;33.70;;;;;;;-2.29;89.40;99139.83;4170251;83;21051;-88
2022/01/10 10:48:39;;;;;;;97.57;35.90;;;;;;;-2.25;89.12;99150.75;4162508;83;21849;-87
2022/01/10 10:54:41;;;;;;;105.53;34.57;;;;;;;-2.37;89.62;99153.06;4167967;83;21036;-87
2022/01/10 11:00:44;;;;;;;91.30;35.80;;;;;;;-2.47;89.74;99168.72;4150184;83;21074;-88
2022/01/10 11:06:46;;;;;;;91.20;36.20;;;;;;;-2.62;89.46;99181.50;4177867;83;21074;-87
2022/01/10 11:12:56;;;;;;;96.77;39.53;;;;;;;-2.67;89.57;99182.35;4178834;83;21067;-87
2022/01/10 11:19:01;;;;;;;91.63;35.30;;;;;;;-2.66;89.38;99195.22;4186839;83;21487;-88
2022/01/10 11:25:03;;;;;;;101.53;40.13;;;;;;;-2.58;89.90;99194.03;4187081;83;21039;-88
2022/01/10 11:31:07;;;;;;;92.17;38.37;;;;;;;-2.38;89.85;99197.83;4169436;83;21392;-89
2022/01/10 11:37:10;;;;;;;100.63;39.50;;;;;;;-2.37;89.37;99204.80;4176009;83;20988;-87
2022/01/10 11:43:57;;;;;;;78.90;29.80;;;;;;;-2.18;89.30;99211.02;4132778;83;21027;-89
2022/01/10 11:50:30;;;;;;;95.73;37.23;;;;;;;-2.10;89.27;99221.09;4088577;85;21681;-88
2022/01/10 11:56:38;;;;;;;105.87;42.63;;;;;;;-2.14;89.29;99235.36;4090866;86;21039;-88
2022/01/10 12:02:41;;;;;;;138.43;50.73;;;;;;;-2.11;89.67;99243.64;4090310;87;21503;-87
2022/01/10 12:08:48;;;;;;;115.83;44.60;;;;;;;-2.14;89.50;99249.58;4091098;86;21047;-89
2022/01/10 12:14:52;;;;;;;96.37;39.77;;;;;;;-2.09;89.33;99250.88;4096968;85;20974;-87
2022/01/10 12:21:06;;;;;;;92.93;36.37;;;;;;;-2.05;89.31;99261.27;4060850;86;21042;-89
2022/01/10 12:27:10;;;;;;;96.33;38.60;;;;;;;-2.04;89.42;99260.73;4069353;86;21082;-90
2022/01/10 12:33:12;;;;;;;86.83;34.53;;;;;;;-2.08;89.41;99266.40;4087993;86;21141;-88
2022/01/10 12:39:22;;;;;;;80.50;32.63;;;;;;;-2.11;89.45;99277.17;4066565;86;21083;-88
2022/01/10 12:45:24;;;;;;;78.07;34.33;;;;;;;-2.15;89.39;99284.73;4061764;86;21094;-89
2022/01/10 12:51:39;;;;;;;71.77;31.10;;;;;;;-2.13;89.49;99298.67;4061071;86;21006;-89
2022/01/10 12:57:40;;;;;;;70.60;31.43;;;;;;;-2.14;89.51;99315.30;4062619;86;21633;-88
2022/01/10 13:03:57;;;;;;;72.53;32.33;;;;;;;-2.15;89.50;99324.97;4064496;84;86731;-89
2022/01/10 13:10:06;;;;;;;74.62;31.45;;;;;;;-2.13;89.53;99341.59;4062473;86;21039;-89
2022/01/10 13:23:35;;;;;;;75.90;32.20;;;;;;;-2.13;89.55;99365.73;4085044;86;21054;-88
2022/01/10 13:29:57;;;;;;;75.90;32.53;;;;;;;-2.12;89.60;99382.06;4110043;86;21062;-88
2022/01/10 13:35:58;;;;;;;69.27;30.27;;;;;;;-2.11;89.68;99385.80;4122594;85;21017;-90
2022/01/10 13:42:17;;;;;;;67.47;30.53;;;;;;;-2.11;89.59;99401.09;4032701;87;21126;-90
2022/01/10 13:48:39;;;;;;;72.87;32.33;;;;;;;-2.10;89.64;99410.75;4057494;86;21107;-89
2022/01/10 13:54:41;;;;;;;73.23;32.93;;;;;;;-2.10;89.85;99417.46;4043761;87;21106;-89
2022/01/10 14:07:13;;;;;;;73.30;31.10;;;;;;;-2.07;90.02;99438.36;4160791;81;21685;-94
2022/01/10 14:13:17;;;;;;;73.70;32.63;;;;;;;-2.03;90.14;99457.63;4033010;87;21027;-93
2022/01/10 14:19:20;;;;;;;71.50;33.13;;;;;;;-2.03;90.16;99477.75;4003801;86;1272617;-93
2022/01/10 14:25:31;;;;;;;70.80;32.23;;;;;;;-2.01;90.05;99487.66;4110928;86;21087;-94
2022/01/10 14:31:33;;;;;;;71.60;30.77;;;;;;;-2.00;90.25;99504.55;4076950;87;21063;-93
2022/01/10 14:37:37;;;;;;;65.63;28.43;;;;;;;-2.00;90.44;99505.88;4072734;86;21090;-93
2022/01/10 14:43:43;;;;;;;66.90;29.70;;;;;;;-1.98;90.55;99511.78;4074777;86;162880;-94
2022/01/10 14:50:02;;;;;;;64.50;29.50;;;;;;;-1.96;90.45;99533.77;4077107;86;21120;-94
2022/01/10 14:56:05;;;;;;;71.60;31.53;;;;;;;-1.94;90.69;99540.45;4047050;86;21091;-93
2022/01/10 15:02:13;;;;;;;79.75;32.40;;;;;;;-1.92;90.90;99548.22;4075318;86;21060;-94
2022/01/10 15:08:24;;;;;;;71.42;29.55;;;;;;;-1.91;90.98;99548.50;4050902;86;21100;-94
2022/01/10 15:14:26;;;;;;;69.20;29.27;;;;;;;-1.88;91.09;99562.69;4074200;86;21083;-93
2022/01/10 15:20:30;;;;;;;66.80;29.60;;;;;;;-1.88;91.03;99579.58;4055241;86;21064;-93
2022/01/10 15:26:32;;;;;;;68.10;28.43;;;;;;;-1.89;91.09;99589.25;4072813;86;21072;-93
2022/01/10 15:32:35;;;;;;;60.30;27.80;;;;;;;-1.88;90.86;99592.21;4068418;86;21062;-93
2022/01/10 15:38:38;;;;;;;68.83;29.00;;;;;;;-1.91;91.23;99598.14;4075739;86;21143;-94
2022/01/10 15:44:52;;;;;;;72.35;31.90;;;;;;;-1.90;91.33;99611.28;4074509;84;21089;-93
2022/01/10 15:50:52;;;;;;;71.83;32.40;;;;;;;-1.88;91.53;99622.51;4076855;84;21914;-93
2022/01/10 15:57:09;;;;;;;75.93;34.27;;;;;;;-1.84;91.59;99635.66;4079779;86;21128;-93
2022/01/10 16:03:10;;;;;;;83.30;35.00;;;;;;;-1.83;91.69;99645.30;4069635;84;21060;-92
2022/01/10 16:09:12;;;;;;;94.23;39.73;;;;;;;-1.83;91.66;99652.53;4107501;85;21119;-94
2022/01/10 16:15:19;;;;;;;73.63;31.43;;;;;;;-1.83;91.68;99666.77;4108872;85;21093;-93
2022/01/10 16:21:24;;;;;;;80.03;34.57;;;;;;;-1.84;91.45;99675.91;4124199;85;21076;-94
2022/01/10 16:27:36;;;;;;;71.03;32.40;;;;;;;-1.85;91.42;99689.60;4099189;85;21535;-93
2022/01/10 16:40:14;;;;;;;58.13;25.57;;;;;;;-1.83;91.40;99707.02;4154777;82;3119223;-88
2022/01/10 16:46:13;;;;;;;43.60;21.57;;;;;;;-1.83;91.47;99716.95;4185773;84;21005;-88
2022/01/10 16:52:18;;;;;;;45.80;23.13;;;;;;;-1.81;91.37;99733.05;4180089;83;21047;-89
2022/01/10 16:58:19;;;;;;;38.23;17.10;;;;;;;-1.81;91.36;99738.95;4182360;84;21030;-88
2022/01/10 17:04:21;;;;;;;38.77;19.50;;;;;;;-1.82;91.21;99753.45;4181040;84;21702;-89
2022/01/10 17:10:24;;;;;;;37.40;18.20;;;;;;;-1.80;91.35;99763.36;4198587;84;21167;-87
2022/01/10 17:16:27;;;;;;;39.00;18.43;;;;;;;-1.82;91.14;99775.71;4234621;82;21040;-88
2022/01/10 17:22:28;;;;;;;37.70;18.50;;;;;;;-1.80;91.02;99786.98;4202226;83;21101;-87
2022/01/10 17:28:30;;;;;;;39.53;19.80;;;;;;;-1.77;90.94;99790.45;4217467;84;21048;-86
2022/01/10 17:34:39;;;;;;;53.53;22.20;;;;;;;-1.75;90.85;99799.58;4259254;82;21093;-85
2022/01/10 17:40:49;;;;;;;44.33;22.87;;;;;;;-1.74;90.89;99807.91;4322427;81;57004;-87
2022/01/10 17:46:58;;;;;;;54.40;24.03;;;;;;;-1.71;90.89;99812.73;4301271;81;21096;-87
2022/01/10 17:53:02;;;;;;;55.43;23.77;;;;;;;-1.71;90.77;99826.15;4292039;82;22036;-87
2022/01/10 17:59:04;;;;;;;51.57;22.90;;;;;;;-1.70;90.74;99827.22;4296282;82;21014;-86
2022/01/10 18:05:15;;;;;;;43.57;20.40;;;;;;;-1.68;90.76;99829.62;4267678;81;21023;-87
2022/01/10 18:11:17;;;;;;;37.87;18.13;;;;;;;-1.69;90.70;99841.42;4288761;82;22057;-87
2022/01/10 18:17:26;;;;;;;37.60;17.83;;;;;;;-1.66;90.76;99848.39;4349166;81;20968;-87
2022/01/10 18:23:28;;;;;;;36.77;17.93;;;;;;;-1.67;90.60;99848.67;4284609;81;20979;-87
2022/01/10 18:29:31;;;;;;;38.70;21.10;;;;;;;-1.67;90.48;99862.91;4288239;82;21042;-87
2022/01/10 18:35:38;;;;;;;43.73;22.53;;;;;;;-1.66;90.37;99865.06;4374109;80;21058;-88
2022/01/10 18:41:40;;;;;;;44.83;22.67;;;;;;;-1.65;90.36;99880.08;4341838;80;21706;-86
2022/01/10 18:47:42;;;;;;;53.73;26.40;;;;;;;-1.65;90.34;99889.47;4380349;80;21050;-87
2022/01/10 18:53:45;;;;;;;55.43;25.80;;;;;;;-1.62;90.27;99895.64;4307162;82;20978;-86
2022/01/10 18:59:48;;;;;;;57.53;26.17;;;;;;;-1.59;90.23;99903.14;4367651;80;21042;-87
2022/01/10 19:05:51;;;;;;;49.63;24.10;;;;;;;-1.61;90.21;99915.50;4308531;82;21028;-89
2022/01/10 19:11:53;;;;;;;49.03;25.68;;;;;;;-1.64;90.13;99925.45;4334124;81;21028;-89
2022/01/10 19:17:55;;;;;;;48.30;25.08;;;;;;;-1.67;90.04;99933.23;4282410;82;21132;-88
2022/01/10 19:23:57;;;;;;;44.97;22.30;;;;;;;-1.68;89.97;99946.40;4281733;82;21018;-87
2022/01/10 19:29:59;;;;;;;41.70;20.53;;;;;;;-1.70;89.92;99951.23;4380006;80;20998;-88
2022/01/10 19:36:00;;;;;;;47.50;23.30;;;;;;;-1.74;89.79;99964.94;4357254;81;21058;-88
2022/01/10 19:42:02;;;;;;;43.20;21.20;;;;;;;-1.76;89.72;99967.89;4341730;81;21911;-87
2022/01/10 19:48:04;;;;;;;41.37;20.57;;;;;;;-1.77;89.68;99981.03;4219022;81;10000232;-88
2022/01/10 19:54:06;;;;;;;41.33;20.17;;;;;;;-1.78;89.71;99985.33;4337606;81;21066;-87
2022/01/10 20:00:18;;;;;;;36.80;19.10;;;;;;;-1.79;89.63;99984.55;4343133;81;21042;-89
2022/01/10 20:06:19;;;;;;;43.33;20.70;;;;;;;-1.82;89.54;100003.84;4351981;81;20995;-88
2022/01/10 20:12:22;;;;;;;44.17;22.50;;;;;;;-1.87;89.52;100001.19;4180613;83;21013;-87
2022/01/10 20:18:24;;;;;;;36.70;19.23;;;;;;;-1.91;89.46;100015.42;4253805;83;21046;-88
2022/01/10 20:24:36;;;;;;;41.97;19.53;;;;;;;-1.97;89.35;100021.83;4276674;82;20983;-88
2022/01/10 20:30:37;;;;;;;36.80;17.23;;;;;;;-1.98;89.25;100021.58;4328833;81;21009;-88
2022/01/10 20:36:39;;;;;;;33.03;16.43;;;;;;;-2.02;89.04;100037.40;4364981;80;21062;-88
2022/01/10 20:42:41;;;;;;;41.73;19.60;;;;;;;-2.04;88.87;100047.62;4350074;80;21003;-87
2022/01/10 20:48:52;;;;;;;44.33;20.33;;;;;;;-2.07;88.78;100058.07;4375451;80;21998;-87
2022/01/10 20:54:50;;;;;;;43.57;21.27;;;;;;;-2.13;88.72;100062.61;4416468;80;20986;-87
2022/01/10 21:00:54;;;;;;;37.30;18.80;;;;;;;-2.16;88.63;100073.09;4375700;80;20991;-86
2022/01/10 21:06:55;;;;;;;35.60;18.53;;;;;;;-2.16;88.48;100074.43;4369288;80;21041;-87
2022/01/10 21:12:59;;;;;;;38.53;18.33;;;;;;;-2.18;88.49;100079.24;4361269;80;21022;-87
2022/01/10 21:19:03;;;;;;;35.60;16.47;;;;;;;-2.18;88.40;100088.11;4352719;80;21569;-86
2022/01/10 21:25:13;;;;;;;40.13;18.67;;;;;;;-2.20;88.08;100099.62;4378738;80;21026;-85
2022/01/10 21:31:16;;;;;;;34.80;16.43;;;;;;;-2.27;88.08;100101.74;4375734;80;21034;-85
2022/01/10 21:37:17;;;;;;;30.77;16.67;;;;;;;-2.26;87.81;100107.92;4356488;80;21097;-86
2022/01/10 21:43:18;;;;;;;53.67;24.93;;;;;;;-2.29;87.76;100124.02;4382180;80;21046;-87
2022/01/10 21:49:26;;;;;;;56.27;21.73;;;;;;;-2.29;87.83;100125.36;4365316;80;21010;-86
2022/01/10 21:55:27;;;;;;;55.60;24.63;;;;;;;-2.29;87.59;100125.36;4380368;80;21050;-86
2022/01/10 22:01:28;;;;;;;102.43;37.87;;;;;;;-2.29;87.57;100136.62;4392620;80;21659;-85
2022/01/10 22:07:33;;;;;;;69.90;24.83;;;;;;;-2.28;87.56;100142.24;4380026;80;21065;-86
2022/01/10 22:13:35;;;;;;;57.63;25.87;;;;;;;-2.28;87.46;100150.29;4374054;80;21030;-85
2022/01/10 22:19:41;;;;;;;54.00;22.30;;;;;;;-2.28;87.35;100152.45;4387144;80;21507;-85
2022/01/10 22:25:43;;;;;;;56.37;20.48;;;;;;;-2.28;87.35;100156.47;4386564;80;21495;-85
2022/01/10 22:31:44;;;;;;;54.70;20.20;;;;;;;-2.24;87.20;100167.48;4390799;80;21005;-85
2022/01/10 22:37:47;;;;;;;50.27;20.77;;;;;;;-2.22;87.04;100179.55;4373810;80;21030;-84
2022/01/10 22:43:48;;;;;;;96.43;36.60;;;;;;;-2.20;87.01;100183.31;4334887;80;21062;-84
2022/01/10 22:49:49;;;;;;;49.70;22.67;;;;;;;-2.22;86.92;100186.26;4358258;80;21007;-85
2022/01/10 22:55:52;;;;;;;53.73;23.17;;;;;;;-2.25;86.82;100197.52;4356895;80;21523;-85
2022/01/10 23:01:55;;;;;;;46.87;22.13;;;;;;;-2.26;86.61;100203.95;4348228;80;21046;-85
2022/01/10 23:07:56;;;;;;;46.70;22.30;;;;;;;-2.25;86.30;100203.41;4350909;80;21010;-86
2022/01/10 23:13:59;;;;;;;57.00;23.93;;;;;;;-2.29;86.08;100211.71;4354987;80;21515;-86
2022/01/10 23:20:00;;;;;;;56.13;27.53;;;;;;;-2.28;86.05;100214.13;4344156;80;21428;-84
2022/01/10 23:26:03;;;;;;;58.53;25.87;;;;;;;-2.26;85.89;100232.12;4351467;80;21010;-86
2022/01/10 23:32:13;;;;;;;54.20;24.40;;;;;;;-2.27;85.68;100235.85;4346099;80;21056;-85
2022/01/10 23:38:18;;;;;;;43.63;19.07;;;;;;;-2.28;85.74;100238.27;4362264;80;21057;-85
2022/01/10 23:44:19;;;;;;;42.23;20.13;;;;;;;-2.28;85.55;100238.80;4366928;80;21601;-85
2022/01/10 23:50:20;;;;;;;44.73;21.97;;;;;;;-2.30;85.43;100244.42;4353010;80;21041;-84
2022/01/10 23:56:27;;;;;;;36.60;17.77;;;;;;;-2.29;85.18;100246.58;4353167;79;21018;-86
